Time;durP1;ratioP1;P1;durP2;ratioP2;P2;SDS_P1;SDS_P2;PMS_P1;PMS_P2;Temp;Humidity;BMP_temperature;BMP_pressure;BME280_temperature;BME280_humidity;BME280_pressure;Samples;Min_cycle;Max_cycle;Signal;HPM_P1;HPM_P2
2023/07/02 00:00:55;;;;;;;6.40;4.20;;;;;;;21.10;100.00;-18594.22;5043837;28;20499;-81
2023/07/02 00:03:21;;;;;;;7.22;3.70;;;;;;;21.17;100.00;-18596.13;5045887;28;20055;-79
2023/07/02 00:05:49;;;;;;;5.93;3.67;;;;;;;21.17;100.00;-18596.13;5044324;28;20052;-79
2023/07/02 00:08:15;;;;;;;6.40;3.87;;;;;;;21.12;100.00;-18594.63;5043528;28;20946;-81
2023/07/02 00:10:40;;;;;;;5.32;3.60;;;;;;;21.09;100.00;-18593.81;5048663;28;20148;-81
2023/07/02 00:13:06;;;;;;;5.18;3.63;;;;;;;20.95;100.00;-18590.28;5041848;28;20048;-81
2023/07/02 00:15:31;;;;;;;7.70;3.80;;;;;;;21.04;100.00;-18592.44;5046048;28;20033;-81
2023/07/02 00:17:57;;;;;;;6.38;3.63;;;;;;;21.07;100.00;-18593.41;5041468;28;20461;-81
2023/07/02 00:20:22;;;;;;;5.70;4.25;;;;;;;20.83;100.00;-18587.00;5044320;28;20115;-81
2023/07/02 00:22:48;;;;;;;7.97;3.85;;;;;;;20.70;100.00;-18583.47;5046848;28;20043;-81
2023/07/02 00:25:14;;;;;;;6.88;4.13;;;;;;;20.81;100.00;-18586.47;5042212;28;20067;-80
2023/07/02 00:27:40;;;;;;;4.65;3.85;;;;;;;20.58;100.00;-18580.22;5047126;28;20041;-81
2023/07/02 00:30:06;;;;;;;8.23;4.32;;;;;;;20.93;100.00;-18589.59;5044260;28;20052;-80
2023/07/02 00:32:32;;;;;;;10.00;4.75;;;;;;;20.90;100.00;-18588.78;5042051;28;20578;-79
2023/07/02 00:34:58;;;;;;;7.78;4.60;;;;;;;20.71;100.00;-18583.75;5042506;28;20048;-80
2023/07/02 00:37:24;;;;;;;7.78;4.93;;;;;;;20.65;100.00;-18582.09;5046695;28;20318;-79
2023/07/02 00:39:49;;;;;;;9.48;4.80;;;;;;;20.68;100.00;-18583.06;5045236;28;20076;-80
2023/07/02 00:42:14;;;;;;;8.95;5.10;;;;;;;20.79;100.00;-18585.78;5043075;28;20201;-81
2023/07/02 00:44:40;;;;;;;6.68;5.50;;;;;;;20.91;100.00;-18589.03;5049076;28;20057;-80
2023/07/02 00:47:08;;;;;;;8.82;5.95;;;;;;;20.77;100.00;-18585.25;5060579;28;20075;-80
2023/07/02 00:49:33;;;;;;;9.23;5.80;;;;;;;20.65;100.00;-18582.25;5058524;28;20038;-80
2023/07/02 00:51:59;;;;;;;10.25;5.57;;;;;;;20.72;100.00;-18584.16;5044855;28;20091;-79
2023/07/02 00:54:27;;;;;;;10.80;6.38;;;;;;;20.85;100.00;-18587.41;5043428;28;20099;-81
2023/07/02 00:56:52;;;;;;;10.20;6.43;;;;;;;20.85;100.00;-18587.56;5041640;28;20433;-81
2023/07/02 00:59:18;;;;;;;10.30;6.30;;;;;;;20.87;100.00;-18587.97;5048118;28;20047;-79
2023/07/02 01:01:49;;;;;;;11.27;7.05;;;;;;;20.71;100.00;-18583.75;5043602;28;20052;-82
2023/07/02 01:04:17;;;;;;;10.65;6.25;;;;;;;20.71;100.00;-18583.75;5041397;28;20450;-81
2023/07/02 01:06:43;;;;;;;15.95;6.70;;;;;;;21.04;100.00;-18592.44;5044139;28;20060;-80
2023/07/02 01:09:10;;;;;;;11.55;6.88;;;;;;;21.10;100.00;-18594.22;5042946;28;20052;-80
2023/07/02 01:11:43;;;;;;;14.00;6.95;;;;;;;20.88;100.00;-18588.22;5046740;28;20041;-80
2023/07/02 01:14:15;;;;;;;10.77;6.53;;;;;;;21.08;100.00;-18593.66;5043058;28;20080;-80
2023/07/02 01:16:43;;;;;;;9.98;7.13;;;;;;;21.16;100.00;-18595.72;5048607;28;20408;-80
2023/07/02 01:19:25;;;;;;;16.88;8.65;;;;;;;20.98;100.00;-18590.81;5064474;28;20167;-80
2023/07/02 01:21:50;;;;;;;14.40;7.57;;;;;;;21.05;100.00;-18592.72;5054891;28;20090;-81
2023/07/02 01:24:17;;;;;;;15.93;8.27;;;;;;;21.00;100.00;-18591.50;5063723;28;20044;-80
2023/07/02 01:26:42;;;;;;;14.07;8.10;;;;;;;20.92;100.00;-18589.47;5047720;28;20128;-80
2023/07/02 01:29:18;;;;;;;16.48;8.00;;;;;;;20.94;100.00;-18590.00;5048028;28;20319;-80
2023/07/02 01:31:44;;;;;;;15.95;7.45;;;;;;;20.95;100.00;-18590.28;5047975;28;20052;-80
2023/07/02 01:34:10;;;;;;;14.35;7.53;;;;;;;21.04;100.00;-18592.44;5047643;28;20049;-81
2023/07/02 01:36:36;;;;;;;15.25;7.75;;;;;;;20.94;100.00;-18589.88;5035594;28;20052;-80
2023/07/02 01:39:01;;;;;;;15.18;7.30;;;;;;;20.99;100.00;-18591.09;5051277;28;20043;-80
2023/07/02 01:41:27;;;;;;;13.75;7.47;;;;;;;21.00;100.00;-18591.50;5048941;28;20940;-81
2023/07/02 01:43:52;;;;;;;14.77;8.57;;;;;;;20.96;100.00;-18590.53;5051431;28;20048;-79
2023/07/02 01:46:17;;;;;;;14.55;8.35;;;;;;;20.93;100.00;-18589.72;5047497;28;20091;-80
2023/07/02 01:48:43;;;;;;;17.08;7.97;;;;;;;21.06;100.00;-18593.13;5049761;28;20053;-80
2023/07/02 01:51:08;;;;;;;17.17;8.77;;;;;;;21.00;100.00;-18591.34;5048692;28;20048;-80
2023/07/02 01:53:33;;;;;;;17.48;7.40;;;;;;;20.91;100.00;-18589.19;5052082;28;20440;-80
2023/07/02 01:55:59;;;;;;;13.35;6.90;;;;;;;20.57;100.00;-18580.06;5046782;28;20094;-80
2023/07/02 01:58:24;;;;;;;13.65;7.03;;;;;;;20.43;100.00;-18576.25;5050183;28;20059;-80
2023/07/02 02:00:50;;;;;;;13.02;6.35;;;;;;;20.45;100.00;-18576.78;5047536;28;20128;-79
2023/07/02 02:03:15;;;;;;;11.30;6.40;;;;;;;20.11;100.00;-18567.69;5048101;28;20541;-80
2023/07/02 02:05:40;;;;;;;12.10;6.82;;;;;;;20.14;100.00;-18568.50;5053187;28;20048;-79
2023/07/02 02:08:06;;;;;;;12.02;6.43;;;;;;;20.08;100.00;-18566.88;5052498;28;20227;-80
2023/07/02 02:10:31;;;;;;;11.80;6.22;;;;;;;20.13;100.00;-18568.22;5050790;28;20033;-79
2023/07/02 02:12:56;;;;;;;15.07;7.00;;;;;;;20.13;100.00;-18568.22;5050182;28;20037;-80
2023/07/02 02:15:22;;;;;;;12.40;6.88;;;;;;;19.94;100.00;-18563.19;5050306;28;20245;-80
2023/07/02 02:17:47;;;;;;;13.25;7.22;;;;;;;20.01;100.00;-18565.09;5056370;28;20081;-79
2023/07/02 02:20:12;;;;;;;13.63;7.00;;;;;;;20.02;100.00;-18565.38;5046024;28;20060;-80
2023/07/02 02:22:38;;;;;;;16.48;7.10;;;;;;;19.76;100.00;-18558.41;5048762;28;20400;-80
2023/07/02 02:25:04;;;;;;;13.63;6.97;;;;;;;19.92;100.00;-18562.66;5045339;28;20060;-80
2023/07/02 02:27:29;;;;;;;14.80;8.23;;;;;;;19.88;100.00;-18561.56;5044072;28;20068;-79
2023/07/02 02:29:54;;;;;;;13.23;7.25;;;;;;;19.89;100.00;-18561.97;5045136;28;20041;-80
2023/07/02 02:32:21;;;;;;;15.70;7.90;;;;;;;19.73;100.00;-18557.59;5043640;28;20044;-79
2023/07/02 02:34:47;;;;;;;17.77;8.88;;;;;;;19.77;100.00;-18558.84;5050752;28;20041;-80
2023/07/02 02:37:12;;;;;;;18.30;8.55;;;;;;;19.83;100.00;-18560.34;5044583;28;20037;-79
2023/07/02 02:39:38;;;;;;;16.95;8.50;;;;;;;19.80;100.00;-18559.66;5042767;28;20415;-79
2023/07/02 02:42:04;;;;;;;20.42;9.45;;;;;;;19.83;100.00;-18560.34;5044032;28;20086;-80
2023/07/02 02:44:29;;;;;;;15.85;8.45;;;;;;;19.72;100.00;-18557.34;5043602;28;20045;-79
2023/07/02 02:46:55;;;;;;;19.05;8.35;;;;;;;19.74;100.00;-18557.88;5043111;28;20045;-79
2023/07/02 02:49:20;;;;;;;17.73;8.60;;;;;;;19.76;100.00;-18558.41;5045990;28;20079;-79
2023/07/02 02:51:45;;;;;;;16.75;7.35;;;;;;;19.82;100.00;-18560.19;5041461;28;20563;-79
2023/07/02 02:54:11;;;;;;;19.13;8.10;;;;;;;19.90;100.00;-18562.22;5046642;28;20045;-80
2023/07/02 02:56:36;;;;;;;14.20;7.50;;;;;;;19.96;100.00;-18563.88;5045095;28;20049;-80
2023/07/02 02:59:02;;;;;;;16.15;8.65;;;;;;;19.86;100.00;-18561.16;5045447;28;20086;-79
2023/07/02 03:01:30;;;;;;;18.70;8.25;;;;;;;19.93;100.00;-18562.91;5045534;28;20037;-80
2023/07/02 03:03:57;;;;;;;14.95;7.03;;;;;;;20.02;100.00;-18565.38;5046593;28;20047;-79
2023/07/02 03:06:23;;;;;;;16.98;7.68;;;;;;;20.01;100.00;-18565.09;5045099;28;20049;-79
2023/07/02 03:08:48;;;;;;;19.50;7.97;;;;;;;20.06;100.00;-18566.59;5046682;28;20041;-78
2023/07/02 03:11:14;;;;;;;12.93;6.72;;;;;;;19.87;100.00;-18561.41;5062032;28;20060;-79
2023/07/02 03:13:39;;;;;;;14.55;6.70;;;;;;;19.76;100.00;-18558.41;5044654;28;20055;-79
2023/07/02 03:16:05;;;;;;;16.60;8.18;;;;;;;19.57;100.00;-18553.50;5046710;28;20045;-79
2023/07/02 03:18:30;;;;;;;13.52;6.60;;;;;;;19.56;100.00;-18553.09;5045901;28;20064;-79
2023/07/02 03:20:55;;;;;;;17.92;7.10;;;;;;;19.52;100.00;-18552.16;5046384;28;20039;-79
2023/07/02 03:23:21;;;;;;;21.42;8.13;;;;;;;19.57;100.00;-18553.38;5044383;28;20140;-80
2023/07/02 03:25:46;;;;;;;20.45;7.03;;;;;;;19.37;100.00;-18548.06;5046789;28;20055;-79
2023/07/02 03:28:11;;;;;;;16.33;6.63;;;;;;;19.40;100.00;-18548.88;5045662;28;20120;-80
2023/07/02 03:30:37;;;;;;;17.88;8.25;;;;;;;19.37;100.00;-18548.19;5044733;28;20056;-81
2023/07/02 03:33:02;;;;;;;15.23;7.45;;;;;;;19.26;100.00;-18545.06;5046397;28;20029;-80
2023/07/02 03:35:27;;;;;;;12.65;7.05;;;;;;;19.24;100.00;-18544.53;5046024;28;20102;-80
2023/07/02 03:37:53;;;;;;;16.02;7.63;;;;;;;19.24;100.00;-18544.66;5044631;28;20053;-78
2023/07/02 03:40:18;;;;;;;13.90;6.70;;;;;;;19.13;100.00;-18541.81;5043895;28;20037;-79
2023/07/02 03:42:43;;;;;;;16.77;7.63;;;;;;;19.10;100.00;-18540.97;5046205;28;20492;-80
2023/07/02 03:45:09;;;;;;;13.82;7.22;;;;;;;18.93;100.00;-18536.34;5045960;28;20077;-79
2023/07/02 03:47:34;;;;;;;15.30;6.55;;;;;;;18.99;100.00;-18537.84;5045644;28;20045;-80
2023/07/02 03:50:00;;;;;;;18.15;6.20;;;;;;;18.95;100.00;-18536.91;5046751;28;20063;-80
2023/07/02 03:52:25;;;;;;;15.45;7.38;;;;;;;19.01;100.00;-18538.41;5046695;28;20037;-79
2023/07/02 03:54:51;;;;;;;17.52;7.38;;;;;;;18.85;100.00;-18534.31;5043816;28;20045;-80
2023/07/02 03:57:16;;;;;;;13.90;6.63;;;;;;;18.93;100.00;-18536.34;5046735;28;20076;-80
2023/07/02 03:59:41;;;;;;;17.27;8.10;;;;;;;18.99;100.00;-18538.00;5045660;28;20044;-78
2023/07/02 04:02:07;;;;;;;16.02;6.25;;;;;;;18.68;100.00;-18529.81;5046932;28;20504;-80
2023/07/02 04:04:32;;;;;;;12.82;6.97;;;;;;;18.76;100.00;-18531.84;5050089;28;20488;-79
2023/07/02 04:06:57;;;;;;;15.10;6.57;;;;;;;18.66;100.00;-18529.25;5046719;28;20335;-79
2023/07/02 04:09:23;;;;;;;17.48;7.47;;;;;;;18.69;100.00;-18530.06;5041883;28;20503;-80
2023/07/02 04:11:48;;;;;;;19.30;7.20;;;;;;;18.54;100.00;-18525.84;5046162;28;20088;-79
2023/07/02 04:14:13;;;;;;;17.85;7.30;;;;;;;18.44;100.00;-18523.25;5044785;28;20044;-78
2023/07/02 04:16:39;;;;;;;16.92;6.55;;;;;;;18.30;100.00;-18519.44;5046049;28;20041;-80
2023/07/02 04:19:04;;;;;;;16.67;6.38;;;;;;;18.30;100.00;-18519.56;5044490;28;20037;-78
2023/07/02 04:21:30;;;;;;;15.98;6.22;;;;;;;18.38;100.00;-18521.63;5045374;28;20063;-79
2023/07/02 04:23:55;;;;;;;17.27;6.57;;;;;;;18.46;100.00;-18523.81;5046493;28;20029;-80
2023/07/02 04:26:21;;;;;;;20.27;7.15;;;;;;;18.44;100.00;-18523.25;5044161;28;20052;-80
2023/07/02 04:28:46;;;;;;;17.50;6.85;;;;;;;18.53;100.00;-18525.72;5043443;28;20155;-79
2023/07/02 04:31:11;;;;;;;13.80;5.90;;;;;;;18.62;100.00;-18528.03;5044665;28;20125;-79
2023/07/02 04:33:37;;;;;;;16.25;6.10;;;;;;;18.43;100.00;-18522.97;5049344;28;20099;-79
2023/07/02 04:36:03;;;;;;;14.68;6.88;;;;;;;18.46;100.00;-18523.81;5045586;28;20053;-80
2023/07/02 04:38:28;;;;;;;16.92;6.75;;;;;;;18.43;100.00;-18522.97;5043295;28;20408;-78
2023/07/02 04:40:54;;;;;;;15.77;7.07;;;;;;;18.55;100.00;-18526.13;5044589;28;20045;-80
2023/07/02 04:43:19;;;;;;;20.55;8.40;;;;;;;18.43;100.00;-18522.97;5045397;28;20057;-79
2023/07/02 04:45:45;;;;;;;15.13;6.90;;;;;;;18.43;100.00;-18522.97;5044924;28;20060;-80
2023/07/02 04:48:10;;;;;;;14.88;6.03;;;;;;;18.46;100.00;-18523.81;5045077;28;20037;-80
2023/07/02 04:50:35;;;;;;;17.98;6.60;;;;;;;18.64;100.00;-18528.72;5048212;28;20080;-79
2023/07/02 04:53:01;;;;;;;16.73;6.43;;;;;;;18.63;100.00;-18528.31;5047393;28;20103;-80
2023/07/02 04:55:27;;;;;;;17.55;7.07;;;;;;;18.70;100.00;-18530.22;5048018;28;20095;-81
2023/07/02 04:57:52;;;;;;;14.90;7.90;;;;;;;18.86;100.00;-18534.44;5049168;28;20037;-79
2023/07/02 05:00:18;;;;;;;16.98;6.20;;;;;;;18.57;100.00;-18526.81;5048539;28;20486;-79
2023/07/02 05:02:44;;;;;;;17.27;6.95;;;;;;;18.70;100.00;-18530.34;5049692;28;20103;-80
2023/07/02 05:05:09;;;;;;;17.17;6.80;;;;;;;18.92;100.00;-18536.06;5047596;28;20395;-80
2023/07/02 05:07:34;;;;;;;16.75;6.47;;;;;;;18.87;100.00;-18534.84;5048476;28;20041;-81
2023/07/02 05:10:00;;;;;;;15.38;6.72;;;;;;;18.93;100.00;-18536.34;5048352;28;20253;-79
2023/07/02 05:12:25;;;;;;;17.65;8.88;;;;;;;19.06;100.00;-18539.75;5042922;28;20076;-80
2023/07/02 05:14:50;;;;;;;19.40;7.68;;;;;;;19.12;100.00;-18541.38;5062237;28;20133;-79
2023/07/02 05:17:16;;;;;;;16.13;7.97;;;;;;;19.22;100.00;-18543.97;5046661;28;20091;-79
2023/07/02 05:19:42;;;;;;;17.80;6.85;;;;;;;19.31;100.00;-18546.44;5047213;28;20033;-81
2023/07/02 05:22:09;;;;;;;14.57;6.40;;;;;;;19.33;100.00;-18546.97;5045465;28;20463;-82
2023/07/02 05:24:34;;;;;;;21.75;7.22;;;;;;;19.34;100.00;-18547.38;5045293;28;20504;-79
2023/07/02 05:26:59;;;;;;;17.40;7.47;;;;;;;19.38;100.00;-18548.47;5044765;28;20051;-81
2023/07/02 05:29:25;;;;;;;23.63;7.35;;;;;;;19.50;100.00;-18551.59;5043794;28;20485;-79
2023/07/02 05:31:50;;;;;;;15.10;6.43;;;;;;;19.40;100.00;-18548.88;5046630;28;20087;-79
2023/07/02 05:34:15;;;;;;;15.55;6.50;;;;;;;19.40;100.00;-18548.88;5067610;22;20056;-77
2023/07/02 05:36:41;;;;;;;16.08;6.28;;;;;;;19.34;100.00;-18547.25;5048874;28;20118;-76
2023/07/02 05:39:06;;;;;;;17.15;7.05;;;;;;;19.31;100.00;-18546.56;5048458;28;20049;-75
2023/07/02 05:41:31;;;;;;;16.10;7.22;;;;;;;19.39;100.00;-18548.59;5049101;28;20049;-77
2023/07/02 05:43:58;;;;;;;19.13;6.40;;;;;;;19.39;100.00;-18548.59;5037632;28;20034;-77
2023/07/02 05:46:23;;;;;;;16.92;6.28;;;;;;;19.52;100.00;-18552.03;5038485;28;20053;-77
2023/07/02 05:48:48;;;;;;;20.25;7.32;;;;;;;19.66;100.00;-18555.84;5027933;28;20135;-76
2023/07/02 05:51:19;;;;;;;17.08;6.78;;;;;;;19.63;100.00;-18554.88;5025386;28;20044;-77
2023/07/02 05:53:44;;;;;;;14.98;6.68;;;;;;;19.61;100.00;-18554.59;5004101;28;20099;-77
2023/07/02 05:56:10;;;;;;;18.35;6.78;;;;;;;19.65;100.00;-18555.56;5011588;28;20693;-77
2023/07/02 05:58:35;;;;;;;19.23;7.85;;;;;;;19.70;100.00;-18556.94;5006033;28;20046;-76
2023/07/02 06:01:01;;;;;;;17.75;7.15;;;;;;;19.74;100.00;-18558.00;5009777;28;20049;-77
2023/07/02 06:03:26;;;;;;;17.70;7.03;;;;;;;19.70;100.00;-18556.94;5005934;28;20227;-77
2023/07/02 06:05:51;;;;;;;17.33;7.18;;;;;;;19.72;100.00;-18557.47;5021840;28;20042;-77
2023/07/02 06:08:17;;;;;;;18.65;7.28;;;;;;;19.75;100.00;-18558.16;5012985;28;20111;-76
2023/07/02 06:10:45;;;;;;;18.80;7.28;;;;;;;19.89;100.00;-18561.81;5006320;28;20038;-76
2023/07/02 06:13:11;;;;;;;14.32;6.28;;;;;;;19.97;100.00;-18564.00;5008383;28;20070;-77
2023/07/02 06:15:36;;;;;;;19.40;6.30;;;;;;;19.86;100.00;-18561.16;5007700;28;20069;-75
2023/07/02 06:18:01;;;;;;;18.17;7.07;;;;;;;19.96;100.00;-18563.88;5007764;28;20152;-76
2023/07/02 06:20:27;;;;;;;20.33;7.30;;;;;;;19.96;100.00;-18563.72;5006453;28;20555;-75
2023/07/02 06:22:52;;;;;;;15.75;6.13;;;;;;;19.97;100.00;-18564.16;5009329;28;20049;-77
2023/07/02 06:25:17;;;;;;;16.75;7.13;;;;;;;20.05;100.00;-18566.31;5013485;28;20103;-76
2023/07/02 06:27:43;;;;;;;18.08;6.70;;;;;;;20.11;99.67;-18567.69;5007820;28;20096;-78
2023/07/02 06:30:08;;;;;;;16.60;6.22;;;;;;;20.08;98.14;-18567.00;5007657;28;20056;-76
2023/07/02 06:32:34;;;;;;;16.85;6.20;;;;;;;20.08;94.89;-18566.88;5005328;28;20060;-77
2023/07/02 06:34:59;;;;;;;17.88;6.53;;;;;;;20.23;95.46;-18570.94;5008055;28;20042;-77
2023/07/02 06:37:24;;;;;;;20.70;6.07;;;;;;;20.26;94.76;-18571.91;5004097;28;20048;-75
2023/07/02 06:39:50;;;;;;;15.40;5.95;;;;;;;20.26;95.96;-18571.75;5023447;28;20119;-76
2023/07/02 06:42:15;;;;;;;15.65;5.95;;;;;;;20.36;94.64;-18574.47;5008522;28;20473;-77
2023/07/02 06:44:41;;;;;;;13.80;5.25;;;;;;;20.37;94.47;-18574.75;5016015;28;20049;-76
2023/07/02 06:47:07;;;;;;;18.52;6.82;;;;;;;20.44;91.23;-18576.66;5016012;28;20092;-77
2023/07/02 06:49:32;;;;;;;16.15;6.88;;;;;;;20.49;90.25;-18577.88;5006772;28;20053;-77
2023/07/02 06:51:57;;;;;;;14.60;6.50;;;;;;;20.62;91.44;-18581.44;5008317;28;20161;-77
2023/07/02 06:54:22;;;;;;;18.95;6.88;;;;;;;20.34;91.67;-18573.94;5006887;28;20049;-76
2023/07/02 06:56:48;;;;;;;15.80;6.28;;;;;;;20.54;92.74;-18579.13;5004717;28;20073;-77
2023/07/02 06:59:19;;;;;;;16.90;6.90;;;;;;;20.69;92.88;-18583.34;5003272;28;20096;-75
2023/07/02 07:01:45;;;;;;;18.00;6.85;;;;;;;20.65;83.86;-18582.09;5003198;28;20042;-77
2023/07/02 07:04:10;;;;;;;19.70;6.07;;;;;;;20.50;80.99;-18578.16;5007030;28;20041;-77
2023/07/02 07:06:37;;;;;;;14.85;6.45;;;;;;;20.48;84.31;-18577.63;5005042;28;20045;-77
2023/07/02 07:09:02;;;;;;;14.30;5.88;;;;;;;20.43;85.39;-18576.41;5007086;28;20807;-77
2023/07/02 07:11:28;;;;;;;19.98;6.18;;;;;;;20.56;85.29;-18579.66;4985607;28;20066;-75
2023/07/02 07:13:53;;;;;;;17.45;6.20;;;;;;;20.64;85.57;-18581.84;5021414;28;20052;-76
2023/07/02 07:16:18;;;;;;;21.13;6.20;;;;;;;20.46;83.79;-18577.22;5019124;28;20057;-76
2023/07/02 07:18:44;;;;;;;19.58;7.75;;;;;;;20.34;90.96;-18573.94;5023571;28;20042;-74
2023/07/02 07:21:10;;;;;;;17.80;5.57;;;;;;;20.37;85.16;-18574.63;5005240;28;20461;-76
2023/07/02 07:23:35;;;;;;;19.13;6.60;;;;;;;20.52;82.99;-18578.72;5019308;28;20056;-76
2023/07/02 07:26:00;;;;;;;15.88;6.18;;;;;;;20.57;84.51;-18579.94;5027480;28;20045;-76
2023/07/02 07:28:26;;;;;;;14.15;5.60;;;;;;;20.46;78.47;-18577.22;5025207;28;20047;-76
2023/07/02 07:30:51;;;;;;;15.73;5.35;;;;;;;20.46;76.59;-18577.22;5025893;28;20606;-76
2023/07/02 07:33:19;;;;;;;15.57;5.95;;;;;;;20.55;78.99;-18579.53;5017812;28;20064;-75
2023/07/02 07:35:44;;;;;;;15.73;5.73;;;;;;;20.53;77.36;-18578.97;5014860;28;20045;-75
2023/07/02 07:38:10;;;;;;;18.50;6.68;;;;;;;20.53;78.55;-18578.97;5005895;28;20038;-76
2023/07/02 07:40:41;;;;;;;17.58;6.03;;;;;;;20.55;78.50;-18579.53;5007440;28;20045;-76
2023/07/02 07:43:06;;;;;;;16.83;6.25;;;;;;;20.45;76.51;-18576.94;5007500;28;20070;-76
2023/07/02 07:45:33;;;;;;;13.38;5.55;;;;;;;20.54;77.93;-18579.25;5006864;28;20111;-76
2023/07/02 07:47:58;;;;;;;18.05;6.53;;;;;;;20.57;78.21;-18579.94;5007250;28;20185;-77
2023/07/02 07:50:24;;;;;;;14.65;5.38;;;;;;;20.50;72.67;-18578.28;5006098;28;20034;-76
2023/07/02 07:52:49;;;;;;;14.15;5.00;;;;;;;20.44;73.76;-18576.53;5007140;28;20042;-76
2023/07/02 07:55:14;;;;;;;13.88;5.05;;;;;;;20.64;73.89;-18581.84;5006951;28;20037;-75
2023/07/02 07:57:40;;;;;;;18.05;5.25;;;;;;;20.70;72.59;-18583.47;5007357;28;20504;-76
2023/07/02 08:00:12;;;;;;;13.85;5.55;;;;;;;20.89;74.32;-18588.50;5005516;28;20128;-76
2023/07/02 08:02:37;;;;;;;15.40;6.20;;;;;;;21.01;76.36;-18591.63;5026981;28;20385;-77
2023/07/02 08:05:04;;;;;;;17.58;5.50;;;;;;;20.89;73.79;-18588.50;5024089;28;20133;-77
2023/07/02 08:07:31;;;;;;;16.45;6.05;;;;;;;21.05;76.38;-18592.72;5025948;28;20065;-75
2023/07/02 08:09:57;;;;;;;16.92;5.63;;;;;;;21.03;75.45;-18592.19;5018438;28;20026;-77
2023/07/02 08:12:22;;;;;;;16.20;5.70;;;;;;;21.06;71.82;-18593.13;5013828;28;20040;-76
2023/07/02 08:14:47;;;;;;;14.90;5.90;;;;;;;21.17;72.14;-18595.97;5021073;28;20649;-77
2023/07/02 08:17:13;;;;;;;13.43;4.80;;;;;;;21.13;69.90;-18594.91;4999840;28;20041;-77
2023/07/02 08:19:38;;;;;;;13.80;5.68;;;;;;;21.25;69.55;-18598.16;5004886;28;20046;-75
2023/07/02 08:22:04;;;;;;;15.75;5.88;;;;;;;21.27;69.49;-18598.69;5006852;28;20034;-76
2023/07/02 08:24:31;;;;;;;15.25;6.90;;;;;;;21.32;68.73;-18600.06;5005586;28;20050;-76
2023/07/02 08:26:56;;;;;;;14.95;5.78;;;;;;;21.25;63.84;-18598.16;5009904;28;20097;-77
2023/07/02 08:29:21;;;;;;;12.35;5.53;;;;;;;21.24;62.63;-18597.88;5022933;28;20029;-76
2023/07/02 08:31:47;;;;;;;14.82;5.95;;;;;;;21.38;63.25;-18601.69;5010961;28;20044;-77
2023/07/02 08:34:12;;;;;;;14.23;5.70;;;;;;;21.59;66.48;-18607.13;5010441;28;20076;-76
2023/07/02 08:36:38;;;;;;;13.27;4.35;;;;;;;21.47;60.04;-18603.88;5007537;28;20045;-76
2023/07/02 08:39:04;;;;;;;14.80;5.32;;;;;;;21.57;59.01;-18606.59;5009013;28;20061;-76
2023/07/02 08:41:31;;;;;;;11.23;4.75;;;;;;;21.35;58.10;-18600.75;5009783;28;20084;-76
2023/07/02 08:43:57;;;;;;;13.10;4.88;;;;;;;21.56;57.78;-18606.31;5009566;28;20038;-77
2023/07/02 08:46:23;;;;;;;11.88;4.10;;;;;;;21.48;58.02;-18604.16;5007914;28;20119;-77
2023/07/02 08:48:48;;;;;;;14.50;4.28;;;;;;;21.36;57.31;-18601.16;4998337;28;20502;-76
2023/07/02 08:51:14;;;;;;;13.45;4.78;;;;;;;21.33;56.88;-18600.34;5024019;28;20034;-76
2023/07/02 08:53:39;;;;;;;15.60;4.72;;;;;;;21.42;56.36;-18602.50;5007795;28;20038;-77
2023/07/02 08:56:04;;;;;;;10.00;4.45;;;;;;;21.50;57.46;-18604.81;5028596;28;20042;-76
2023/07/02 08:58:30;;;;;;;12.95;5.22;;;;;;;21.48;56.65;-18604.16;5021681;28;20527;-77
2023/07/02 09:01:09;;;;;;;10.63;4.47;;;;;;;21.33;58.25;-18600.19;5028769;28;20108;-77
2023/07/02 09:03:38;;;;;;;11.57;4.15;;;;;;;21.21;59.15;-18597.06;5009327;28;20152;-76
2023/07/02 09:06:05;;;;;;;12.30;4.47;;;;;;;21.24;59.55;-18597.88;5004961;28;20716;-77
2023/07/02 09:08:33;;;;;;;12.48;4.30;;;;;;;21.17;58.22;-18596.13;5007141;28;20053;-75
2023/07/02 09:11:13;;;;;;;15.13;5.77;;;;;;;21.37;60.91;-18601.41;5025614;28;20041;-77
2023/07/02 09:13:58;;;;;;;13.55;4.57;;;;;;;21.56;55.23;-18606.31;5027047;28;20037;-76
2023/07/02 09:16:32;;;;;;;12.93;5.40;;;;;;;21.53;55.33;-18605.63;5020776;28;20049;-76
2023/07/02 09:19:05;;;;;;;12.63;4.53;;;;;;;21.35;52.73;-18600.88;5027111;28;20045;-76
2023/07/02 09:21:42;;;;;;;15.25;4.60;;;;;;;21.23;52.24;-18597.63;5023200;28;20096;-76
2023/07/02 09:24:18;;;;;;;11.68;4.30;;;;;;;21.31;52.73;-18599.66;5022567;28;20045;-76
2023/07/02 09:26:49;;;;;;;12.23;4.60;;;;;;;21.53;52.71;-18605.63;5023725;28;20723;-76
2023/07/02 09:29:29;;;;;;;10.07;4.97;;;;;;;21.53;51.33;-18605.50;5038647;28;20056;-76
2023/07/02 09:31:58;;;;;;;14.80;5.47;;;;;;;21.52;54.25;-18605.38;5026753;28;20068;-77
2023/07/02 09:34:41;;;;;;;11.68;4.70;;;;;;;21.36;56.13;-18601.16;5022411;28;20037;-76
2023/07/02 09:37:06;;;;;;;12.73;5.18;;;;;;;21.40;57.18;-18602.09;5023825;28;20045;-77
2023/07/02 09:39:34;;;;;;;11.10;4.57;;;;;;;21.27;54.04;-18598.56;5023329;28;20091;-76
2023/07/02 09:42:01;;;;;;;13.88;4.90;;;;;;;21.50;55.08;-18604.81;5024949;28;20038;-77
2023/07/02 09:44:31;;;;;;;11.40;4.65;;;;;;;21.42;51.03;-18602.66;5025035;28;20036;-76
2023/07/02 09:47:10;;;;;;;12.73;4.40;;;;;;;21.61;50.07;-18607.69;5025276;28;20437;-76
2023/07/02 09:49:41;;;;;;;11.02;3.85;;;;;;;21.86;47.48;-18614.47;5024088;28;20052;-76
2023/07/02 09:52:09;;;;;;;12.23;4.38;;;;;;;22.26;48.65;-18624.94;5025587;28;20051;-77
2023/07/02 09:54:38;;;;;;;9.15;4.20;;;;;;;22.33;49.16;-18626.69;5024981;28;20056;-76
2023/07/02 09:57:05;;;;;;;10.43;4.15;;;;;;;21.92;48.43;-18615.81;5040911;28;20488;-77
2023/07/02 09:59:38;;;;;;;8.32;4.07;;;;;;;22.08;46.78;-18620.19;5024134;28;20569;-76
2023/07/02 10:02:09;;;;;;;11.45;4.93;;;;;;;22.21;46.94;-18623.72;5023971;28;20049;-77
2023/07/02 10:04:45;;;;;;;12.00;4.70;;;;;;;22.53;46.81;-18632.13;5014747;28;20057;-75
2023/07/02 10:07:11;;;;;;;10.85;3.70;;;;;;;22.26;45.57;-18625.06;5035605;28;20056;-76
2023/07/02 10:09:47;;;;;;;9.95;4.18;;;;;;;22.18;44.70;-18622.91;5040699;28;20572;-77
2023/07/02 10:12:20;;;;;;;10.88;4.05;;;;;;;22.50;45.45;-18631.44;5029607;28;20046;-76
2023/07/02 10:14:47;;;;;;;12.52;4.07;;;;;;;22.55;46.22;-18632.66;5026491;28;20034;-76
2023/07/02 10:17:29;;;;;;;9.38;4.32;;;;;;;22.86;45.98;-18640.81;5026565;28;20052;-77
2023/07/02 10:20:11;;;;;;;9.98;4.40;;;;;;;22.69;44.77;-18636.34;5008202;28;20097;-77
2023/07/02 10:22:54;;;;;;;8.90;3.47;;;;;;;22.68;46.10;-18636.19;5025162;28;20601;-77
2023/07/02 10:25:37;;;;;;;10.15;4.60;;;;;;;22.84;45.47;-18640.28;5026925;28;20049;-76
2023/07/02 10:28:20;;;;;;;12.13;4.38;;;;;;;22.80;45.34;-18639.19;5020573;28;20516;-77
2023/07/02 10:30:53;;;;;;;9.23;3.75;;;;;;;22.44;44.81;-18629.69;5026917;28;20382;-77
2023/07/02 10:33:21;;;;;;;7.70;3.63;;;;;;;22.23;44.75;-18624.25;5028165;28;20419;-77
2023/07/02 10:35:52;;;;;;;8.23;3.80;;;;;;;22.34;43.99;-18626.97;5022153;28;20065;-77
2023/07/02 10:38:23;;;;;;;8.50;4.20;;;;;;;22.42;42.72;-18629.16;5027970;28;20045;-77
2023/07/02 10:41:00;;;;;;;8.13;3.75;;;;;;;22.80;43.47;-18639.31;5023678;28;20500;-77
2023/07/02 10:43:28;;;;;;;8.95;3.90;;;;;;;22.97;42.15;-18643.81;5000905;28;20049;-76
2023/07/02 10:45:53;;;;;;;8.57;3.63;;;;;;;23.12;43.89;-18647.88;5006573;28;20053;-77
2023/07/02 10:48:19;;;;;;;8.25;3.22;;;;;;;23.23;43.57;-18650.59;5021957;28;20053;-77
2023/07/02 10:50:44;;;;;;;8.98;3.47;;;;;;;23.02;42.63;-18645.03;5028232;28;20041;-76
2023/07/02 10:53:19;;;;;;;9.80;4.30;;;;;;;22.94;42.79;-18643.00;5029228;28;20037;-77
2023/07/02 10:55:55;;;;;;;9.02;3.90;;;;;;;22.91;40.18;-18642.19;5023223;28;20054;-76
2023/07/02 10:58:20;;;;;;;9.50;3.35;;;;;;;22.78;40.86;-18638.78;5032682;28;20123;-77
2023/07/02 11:00:47;;;;;;;8.85;3.95;;;;;;;23.12;41.08;-18647.88;5026531;28;20070;-77
2023/07/02 11:03:24;;;;;;;9.80;4.47;;;;;;;23.11;40.30;-18647.47;5028546;28;20512;-76
2023/07/02 11:05:51;;;;;;;11.18;3.90;;;;;;;23.23;41.25;-18650.59;5019457;28;20037;-77
2023/07/02 11:08:17;;;;;;;8.45;3.85;;;;;;;23.09;40.26;-18647.06;5018472;28;20037;-77
2023/07/02 11:10:42;;;;;;;8.25;4.05;;;;;;;23.24;41.53;-18650.88;5009482;28;20113;-76
2023/07/02 11:13:18;;;;;;;7.57;3.50;;;;;;;23.41;40.87;-18655.59;5006820;28;20045;-77